Vitosha — 9HA2482 — position and weather

sailwx.info

Track history (hours):
 
Tides and Currents Weather Stations Pressure Air Temp Water Temp Dewpoint Dewpoint Depression Visibility Wind Speed Wind Dir Waves Ship Positions

Vitosha

Last reported at 2017-Nov-23 15:39 UTC. Time now 2017-Dec-14 17:14 UTC.
Position N 27°46' W 015°17'.
Warning: this ship's position is 21 days out of date.

Length 186 m; draft 10.5 m.

Type: Cargo ship. MMSI: 248721000.

Date/timePositionNaut miles runAvg speedWind from/ knotsBaromVisibWave heightAir tempDewpointWater temp
2017-Nov-23 15:39N 27°46' W 015°17'2 9.9
2017-Nov-23 15:28N 27°48' W 015°16'4 9.2
2017-Nov-23 15:00N 27°52' W 015°16'510.6
2017-Nov-23 14:30N 27°57' W 015°18'510.4
2017-Nov-23 14:00N 28°02' W 015°20'5 9.6
2017-Nov-23 13:30N 28°06' W 015°23'1 2.2
2017-Nov-23 13:01N 28°06' W 015°24'0 0.1
2017-Nov-23 12:31N 28°06' W 015°24'0 0.1
2017-Nov-23 12:01N 28°06' W 015°24'0 0.0
2017-Nov-23 11:31N 28°06' W 015°24'0 0.0
2017-Nov-23 11:01N 28°06' W 015°24'0 0.0
2017-Nov-23 10:31N 28°06' W 015°24'0 0.0
2017-Nov-23 10:01N 28°06' W 015°24'0 0.0
2017-Nov-23 09:19N 28°06' W 015°24'0 0.0
2017-Nov-23 08:37N 28°06' W 015°24'0 0.0
2017-Nov-23 08:22N 28°06' W 015°24'0 0.0
2017-Nov-23 07:49N 28°06' W 015°24'0 0.0
2017-Nov-23 07:25N 28°06' W 015°24'0 0.0
2017-Nov-23 06:55N 28°06' W 015°24'0 0.0
2017-Nov-23 06:25N 28°06' W 015°24'0 0.0
2017-Nov-23 05:55N 28°06' W 015°24'0 0.1
2017-Nov-23 05:28N 28°06' W 015°24'0 0.2
2017-Nov-23 04:58N 28°06' W 015°24'0 0.3
2017-Nov-23 04:30N 28°06' W 015°24'2 4.2
2017-Nov-23 04:00N 28°08' W 015°22'4 8.6
2017-Nov-23 03:30N 28°11' W 015°19'510.8
2017-Nov-23 03:00N 28°14' W 015°14'611.1
2017-Nov-23 02:30N 28°18' W 015°10'611.1
2017-Nov-23 02:00N 28°23' W 015°06'511.0
2017-Nov-23 01:30N 28°26' W 015°01'611.1
2017-Nov-23 01:00N 28°30' W 014°57'611.2
2017-Nov-23 00:30N 28°35' W 014°53'510.9
2017-Nov-23 00:00N 28°39' W 014°48'510.7
2017-Nov-22 23:30N 28°42' W 014°44'510.7
2017-Nov-22 23:00N 28°46' W 014°40'510.8
2017-Nov-22 22:30N 28°50' W 014°35'510.8
2017-Nov-22 22:00N 28°54' W 014°31'511.0
2017-Nov-22 21:30N 28°58' W 014°27'611.2
2017-Nov-22 21:00N 29°02' W 014°22'611.1
2017-Nov-22 20:30N 29°06' W 014°18'511.0
2017-Nov-22 20:00N 29°10' W 014°14'710.9
2017-Nov-22 19:20N 29°15' W 014°07'  
Track history (hours):
 
Tides and Currents Weather Stations Pressure Air Temp Water Temp Dewpoint Dewpoint Depression Visibility Wind Speed Wind Dir Waves Ship Positions

Vitosha

Last reported at 2017-Nov-23 15:39 UTC. Time now 2017-Dec-14 17:14 UTC.
Position N 27°46' W 015°17'.
Warning: this ship's position is 21 days out of date.

Length 186 m; draft 10.5 m.

Type: Cargo ship. MMSI: 248721000.

Date/timePositionNaut miles runAvg speedWind from/ knotsBaromVisibWave heightAir tempDewpointWater temp
2017-Nov-23 15:39N 27°46' W 015°17'2 9.9
2017-Nov-23 15:28N 27°48' W 015°16'4 9.2
2017-Nov-23 15:00N 27°52' W 015°16'510.6
2017-Nov-23 14:30N 27°57' W 015°18'510.4
2017-Nov-23 14:00N 28°02' W 015°20'5 9.6
2017-Nov-23 13:30N 28°06' W 015°23'1 2.2
2017-Nov-23 13:01N 28°06' W 015°24'0 0.1
2017-Nov-23 12:31N 28°06' W 015°24'0 0.1
2017-Nov-23 12:01N 28°06' W 015°24'0 0.0
2017-Nov-23 11:31N 28°06' W 015°24'0 0.0
2017-Nov-23 11:01N 28°06' W 015°24'0 0.0
2017-Nov-23 10:31N 28°06' W 015°24'0 0.0
2017-Nov-23 10:01N 28°06' W 015°24'0 0.0
2017-Nov-23 09:19N 28°06' W 015°24'0 0.0
2017-Nov-23 08:37N 28°06' W 015°24'0 0.0
2017-Nov-23 08:22N 28°06' W 015°24'0 0.0
2017-Nov-23 07:49N 28°06' W 015°24'0 0.0
2017-Nov-23 07:25N 28°06' W 015°24'0 0.0
2017-Nov-23 06:55N 28°06' W 015°24'0 0.0
2017-Nov-23 06:25N 28°06' W 015°24'0 0.0
2017-Nov-23 05:55N 28°06' W 015°24'0 0.1
2017-Nov-23 05:28N 28°06' W 015°24'0 0.2
2017-Nov-23 04:58N 28°06' W 015°24'0 0.3
2017-Nov-23 04:30N 28°06' W 015°24'2 4.2
2017-Nov-23 04:00N 28°08' W 015°22'4 8.6
2017-Nov-23 03:30N 28°11' W 015°19'510.8
2017-Nov-23 03:00N 28°14' W 015°14'611.1
2017-Nov-23 02:30N 28°18' W 015°10'611.1
2017-Nov-23 02:00N 28°23' W 015°06'511.0
2017-Nov-23 01:30N 28°26' W 015°01'611.1
2017-Nov-23 01:00N 28°30' W 014°57'611.2
2017-Nov-23 00:30N 28°35' W 014°53'510.9
2017-Nov-23 00:00N 28°39' W 014°48'510.7
2017-Nov-22 23:30N 28°42' W 014°44'510.7
2017-Nov-22 23:00N 28°46' W 014°40'510.8
2017-Nov-22 22:30N 28°50' W 014°35'510.8
2017-Nov-22 22:00N 28°54' W 014°31'511.0
2017-Nov-22 21:30N 28°58' W 014°27'611.2
2017-Nov-22 21:00N 29°02' W 014°22'611.1
2017-Nov-22 20:30N 29°06' W 014°18'511.0
2017-Nov-22 20:00N 29°10' W 014°14'710.9
2017-Nov-22 19:20N 29°15' W 014°07'  

Dump ship's entire track history